createdAt,value
2023-07-03T00:00:45.041Z,16.60
2023-07-03T00:01:45.043Z,16.20
2023-07-03T00:02:45.036Z,16.20
2023-07-03T00:03:45.063Z,16.30
2023-07-03T00:04:45.212Z,13.90
2023-07-03T00:05:45.122Z,13.70
2023-07-03T00:06:45.032Z,14.00
2023-07-03T00:07:44.994Z,15.60
2023-07-03T00:08:44.995Z,15.30
2023-07-03T00:09:44.993Z,13.60
2023-07-03T00:10:44.922Z,17.90
2023-07-03T00:11:44.993Z,14.00
2023-07-03T00:12:45.008Z,15.00
2023-07-03T00:13:44.914Z,15.80
2023-07-03T00:14:44.908Z,15.10
2023-07-03T00:15:44.902Z,14.80
2023-07-03T00:16:45.051Z,17.50
2023-07-03T00:17:44.939Z,13.00
2023-07-03T00:18:44.879Z,18.40
2023-07-03T00:19:44.873Z,14.90
2023-07-03T00:20:44.886Z,16.30
2023-07-03T00:21:45.097Z,14.10
2023-07-03T00:22:44.881Z,16.40
2023-07-03T00:23:44.794Z,13.90
2023-07-03T00:24:44.786Z,14.80
2023-07-03T00:25:44.797Z,15.70
2023-07-03T00:26:44.786Z,14.30
2023-07-03T00:27:44.794Z,15.30
2023-07-03T00:28:44.799Z,15.50
2023-07-03T00:29:44.759Z,15.10
2023-07-03T00:30:44.769Z,17.30
2023-07-03T00:31:44.793Z,16.50
2023-07-03T00:32:44.792Z,16.90
2023-07-03T00:33:44.666Z,17.90
2023-07-03T00:34:44.700Z,14.30
2023-07-03T00:35:44.667Z,14.00
2023-07-03T00:36:44.681Z,15.70
2023-07-03T00:37:44.763Z,15.80
2023-07-03T00:38:45.608Z,17.50
2023-07-03T00:39:44.683Z,16.30
2023-07-03T00:40:44.678Z,17.20
2023-07-03T00:41:45.604Z,15.90
2023-07-03T00:42:44.674Z,12.00
2023-07-03T00:43:44.569Z,15.70
2023-07-03T00:44:44.558Z,13.50
2023-07-03T00:45:44.570Z,17.10
2023-07-03T00:46:44.667Z,17.10
2023-07-03T00:47:44.614Z,16.10
2023-07-03T00:48:44.647Z,17.80
2023-07-03T00:49:44.584Z,13.00
2023-07-03T00:50:47.085Z,14.00
2023-07-03T00:51:44.537Z,17.40
2023-07-03T00:52:44.534Z,13.00
2023-07-03T00:53:44.462Z,14.80
2023-07-03T00:54:44.445Z,16.00
2023-07-03T00:55:44.433Z,18.10
2023-07-03T00:56:44.461Z,14.30
2023-07-03T00:57:44.521Z,14.20
2023-07-03T00:58:44.445Z,17.00
2023-07-03T00:59:44.442Z,14.40
2023-07-03T01:00:44.526Z,14.40
2023-07-03T01:01:44.466Z,12.60
2023-07-03T01:02:44.460Z,17.00
2023-07-03T01:03:44.426Z,14.60
2023-07-03T01:04:44.442Z,17.60
2023-07-03T01:05:44.404Z,16.30
2023-07-03T01:06:44.327Z,15.70
2023-07-03T01:07:44.405Z,14.80
2023-07-03T01:08:44.329Z,17.60
2023-07-03T01:09:44.320Z,17.70
2023-07-03T01:10:44.332Z,15.00
2023-07-03T01:11:44.300Z,17.70
2023-07-03T01:12:44.338Z,14.40
2023-07-03T01:13:44.318Z,15.70
2023-07-03T01:14:44.297Z,15.60
2023-07-03T01:15:44.253Z,17.50
2023-07-03T01:16:44.253Z,15.20
2023-07-03T01:17:44.249Z,15.00
2023-07-03T01:18:44.295Z,15.00
2023-07-03T01:19:44.199Z,13.00
2023-07-03T01:20:44.202Z,14.00
2023-07-03T01:21:44.211Z,17.10
2023-07-03T01:22:44.173Z,17.60
2023-07-03T01:23:44.172Z,17.20
2023-07-03T01:24:44.232Z,15.70
2023-07-03T01:25:44.173Z,14.50
2023-07-03T01:26:44.093Z,16.70
2023-07-03T01:27:44.092Z,17.00
2023-07-03T01:28:44.098Z,16.70
2023-07-03T01:29:44.173Z,16.10
2023-07-03T01:30:44.100Z,18.50
2023-07-03T01:31:44.110Z,18.20
2023-07-03T01:32:46.683Z,17.50
2023-07-03T01:33:44.068Z,13.00
2023-07-03T01:34:44.092Z,17.20
2023-07-03T01:35:44.061Z,15.00
2023-07-03T01:36:44.071Z,17.40
2023-07-03T01:37:44.058Z,19.20
2023-07-03T01:38:43.987Z,17.90
2023-07-03T01:39:43.984Z,13.40
2023-07-03T01:40:44.057Z,15.90
2023-07-03T01:41:44.062Z,16.30
2023-07-03T01:42:43.976Z,18.90
2023-07-03T01:43:43.979Z,16.90
2023-07-03T01:44:43.971Z,18.60
2023-07-03T01:45:46.689Z,17.20
2023-07-03T01:46:43.960Z,20.30
2023-07-03T01:47:43.950Z,20.80
2023-07-03T01:48:43.876Z,17.00
2023-07-03T01:49:43.861Z,16.60
2023-07-03T01:50:43.943Z,17.50
2023-07-03T01:51:43.916Z,17.40
2023-07-03T01:52:43.852Z,15.50
2023-07-03T01:53:43.950Z,18.30
2023-07-03T01:54:43.857Z,15.80
2023-07-03T01:55:43.860Z,19.30
2023-07-03T01:56:43.835Z,16.50
2023-07-03T01:57:43.835Z,15.00
2023-07-03T01:58:43.768Z,20.00
2023-07-03T01:59:43.770Z,16.00
2023-07-03T02:00:43.834Z,17.00
2023-07-03T02:01:43.870Z,18.40
2023-07-03T02:02:43.838Z,18.60
2023-07-03T02:03:43.864Z,20.50
2023-07-03T02:04:43.797Z,16.10
2023-07-03T02:05:43.744Z,16.60
2023-07-03T02:06:43.708Z,18.30
2023-07-03T02:07:43.720Z,19.80
2023-07-03T02:08:43.710Z,19.80
2023-07-03T02:09:43.741Z,17.90
2023-07-03T02:10:43.631Z,17.10
2023-07-03T02:11:43.619Z,20.10
2023-07-03T02:12:43.644Z,15.20
2023-07-03T02:13:43.861Z,21.30
2023-07-03T02:14:43.709Z,16.50
2023-07-03T02:15:43.654Z,13.40
2023-07-03T02:16:43.648Z,13.70
2023-07-03T02:17:43.677Z,20.70
2023-07-03T02:18:43.588Z,17.30
2023-07-03T02:19:43.653Z,17.70
2023-07-03T02:20:43.597Z,16.20
2023-07-03T02:21:43.545Z,18.60
2023-07-03T02:22:43.508Z,15.70
2023-07-03T02:23:43.502Z,19.60
2023-07-03T02:24:43.511Z,16.90
2023-07-03T02:25:43.522Z,18.80
2023-07-03T02:26:43.605Z,16.00
2023-07-03T02:27:43.508Z,14.70
2023-07-03T02:28:43.509Z,17.30
2023-07-03T02:29:43.491Z,16.30
2023-07-03T02:30:45.206Z,15.20
2023-07-03T02:31:43.522Z,14.00
2023-07-03T02:32:43.447Z,18.80
2023-07-03T02:33:43.383Z,18.10
2023-07-03T02:34:43.471Z,20.10
2023-07-03T02:35:43.397Z,16.80
2023-07-03T02:36:43.383Z,18.00
2023-07-03T02:37:43.408Z,15.90
2023-07-03T02:38:43.365Z,16.00
2023-07-03T02:39:43.399Z,18.70
2023-07-03T02:40:43.363Z,16.60
2023-07-03T02:41:43.290Z,17.30
2023-07-03T02:42:43.364Z,20.30
2023-07-03T02:43:43.263Z,14.30
2023-07-03T02:44:43.357Z,20.10
2023-07-03T02:45:43.289Z,18.20
2023-07-03T02:46:43.391Z,21.00
2023-07-03T02:47:43.347Z,17.90
2023-07-03T02:48:43.287Z,16.70
2023-07-03T02:49:43.307Z,14.90
2023-07-03T02:50:43.257Z,23.10
2023-07-03T02:51:43.241Z,18.80
2023-07-03T02:52:43.189Z,19.50
2023-07-03T02:53:43.179Z,19.10
2023-07-03T02:54:43.170Z,20.40
2023-07-03T02:55:43.244Z,16.70
2023-07-03T02:56:43.118Z,16.40
2023-07-03T02:57:43.148Z,15.60
2023-07-03T02:58:43.122Z,23.20
2023-07-03T02:59:43.119Z,20.90
2023-07-03T03:00:43.082Z,19.20
2023-07-03T03:01:43.036Z,18.80
2023-07-03T03:02:43.205Z,17.80
2023-07-03T03:03:43.049Z,16.90
2023-07-03T03:04:43.208Z,18.70
2023-07-03T03:05:43.045Z,18.50
2023-07-03T03:06:43.002Z,16.30
2023-07-03T03:07:43.050Z,19.20
2023-07-03T03:08:43.003Z,18.30
2023-07-03T03:09:42.944Z,17.20
2023-07-03T03:10:43.038Z,19.20
2023-07-03T03:11:42.920Z,21.60
2023-07-03T03:12:42.915Z,20.30
2023-07-03T03:13:43.007Z,20.40
2023-07-03T03:14:42.921Z,17.20
2023-07-03T03:15:42.913Z,19.90
2023-07-03T03:16:43.667Z,21.30
2023-07-03T03:17:43.698Z,17.60
2023-07-03T03:18:43.251Z,17.00
2023-07-03T03:19:43.247Z,23.20
2023-07-03T03:20:44.001Z,20.50
2023-07-03T03:21:43.251Z,19.50
2023-07-03T03:22:42.811Z,18.20
2023-07-03T03:23:42.804Z,22.00
2023-07-03T03:24:42.891Z,21.00
2023-07-03T03:25:42.806Z,17.10
2023-07-03T03:26:42.805Z,17.20
2023-07-03T03:27:42.810Z,18.60
2023-07-03T03:28:42.799Z,19.70
2023-07-03T03:29:42.770Z,19.70
2023-07-03T03:30:42.795Z,16.30
2023-07-03T03:31:42.704Z,18.60
2023-07-03T03:32:42.719Z,17.20
2023-07-03T03:33:42.699Z,19.30
2023-07-03T03:34:42.690Z,19.10
2023-07-03T03:35:42.773Z,22.40
2023-07-03T03:36:42.694Z,18.30
2023-07-03T03:37:42.775Z,18.50
2023-07-03T03:38:42.702Z,19.40
2023-07-03T03:39:42.654Z,23.60
2023-07-03T03:40:42.658Z,16.00
2023-07-03T03:41:42.710Z,21.70
2023-07-03T03:42:42.578Z,20.00
2023-07-03T03:43:42.578Z,17.00
2023-07-03T03:44:42.577Z,20.60
2023-07-03T03:45:42.607Z,19.10
2023-07-03T03:46:42.758Z,20.20
2023-07-03T03:47:42.755Z,22.40
2023-07-03T03:48:42.667Z,18.70
2023-07-03T03:49:42.538Z,19.80
2023-07-03T03:50:42.558Z,17.10
2023-07-03T03:51:42.579Z,20.00
2023-07-03T03:52:42.481Z,18.40
2023-07-03T03:53:42.466Z,17.60
2023-07-03T03:54:42.452Z,19.10
2023-07-03T03:55:42.470Z,22.60
2023-07-03T03:56:42.544Z,20.70
2023-07-03T03:57:42.545Z,23.50
2023-07-03T03:58:42.563Z,21.10
2023-07-03T04:00:52.630Z,19.90
2023-07-03T04:01:53.706Z,22.60
2023-07-03T04:02:53.642Z,17.40
2023-07-03T04:03:53.556Z,19.80
2023-07-03T04:04:53.538Z,18.60
2023-07-03T04:05:53.873Z,18.60
2023-07-03T04:06:53.506Z,21.10
2023-07-03T04:07:53.496Z,17.80
2023-07-03T04:08:53.596Z,18.00
2023-07-03T04:09:53.499Z,18.20
2023-07-03T04:10:53.484Z,20.90
2023-07-03T04:11:53.496Z,20.60
2023-07-03T04:12:53.402Z,22.40
2023-07-03T04:13:53.438Z,19.40
2023-07-03T04:14:53.462Z,21.50
2023-07-03T04:15:53.537Z,19.00
2023-07-03T04:16:53.561Z,19.10
2023-07-03T04:17:53.400Z,20.10
2023-07-03T04:18:53.380Z,21.50
2023-07-03T04:19:53.389Z,19.20
2023-07-03T04:20:53.347Z,22.40
2023-07-03T04:21:53.403Z,17.70
2023-07-03T04:22:53.350Z,18.10
2023-07-03T04:23:53.377Z,21.40
2023-07-03T04:24:53.276Z,19.00
2023-07-03T04:25:53.525Z,21.00
2023-07-03T04:26:53.280Z,18.00
2023-07-03T04:27:53.267Z,19.60
2023-07-03T04:28:53.267Z,23.00
2023-07-03T04:29:53.264Z,16.80
2023-07-03T04:30:53.347Z,23.00
2023-07-03T04:31:53.280Z,16.70
2023-07-03T04:32:53.260Z,18.70
2023-07-03T04:33:53.227Z,20.40
2023-07-03T04:34:53.227Z,22.50
2023-07-03T04:35:53.441Z,18.50
2023-07-03T04:36:53.145Z,21.20
2023-07-03T04:37:53.151Z,21.70
2023-07-03T04:38:53.155Z,24.60
2023-07-03T04:39:53.157Z,23.40
2023-07-03T04:40:53.232Z,18.10
2023-07-03T04:41:53.144Z,19.00
2023-07-03T04:42:53.351Z,19.30
2023-07-03T04:43:53.112Z,19.40
2023-07-03T04:44:53.151Z,21.50
2023-07-03T04:45:53.618Z,21.40
2023-07-03T04:46:53.131Z,25.50
2023-07-03T04:47:53.069Z,23.30
2023-07-03T04:48:53.042Z,20.70
2023-07-03T04:49:53.029Z,23.90
2023-07-03T04:50:53.048Z,18.30
2023-07-03T04:51:53.123Z,18.60
2023-07-03T04:52:53.026Z,25.10
2023-07-03T04:53:53.013Z,18.70
2023-07-03T04:54:53.009Z,19.60
2023-07-03T04:55:53.315Z,18.50
2023-07-03T04:56:53.012Z,19.00
2023-07-03T04:57:52.997Z,19.80
2023-07-03T04:58:52.917Z,20.40
2023-07-03T04:59:52.917Z,19.50
2023-07-03T05:00:52.922Z,18.30
2023-07-03T05:01:53.118Z,19.90
2023-07-03T05:02:53.034Z,18.70
2023-07-03T05:03:52.964Z,20.10
2023-07-03T05:04:52.935Z,22.80
2023-07-03T05:05:53.137Z,21.00
2023-07-03T05:06:52.886Z,18.50
2023-07-03T05:07:52.962Z,21.40
2023-07-03T05:08:52.896Z,19.80
2023-07-03T05:09:54.119Z,21.50
2023-07-03T05:10:52.908Z,19.10
2023-07-03T05:11:52.808Z,20.40
2023-07-03T05:12:52.953Z,15.90
2023-07-03T05:13:52.834Z,19.60
2023-07-03T05:14:52.810Z,16.50
2023-07-03T05:15:53.024Z,19.70
2023-07-03T05:16:52.778Z,19.40
2023-07-03T05:17:52.854Z,22.60
2023-07-03T05:18:52.768Z,19.80
2023-07-03T05:19:53.182Z,19.10
2023-07-03T05:20:52.690Z,25.40
2023-07-03T05:21:52.685Z,19.30
2023-07-03T05:22:52.700Z,21.60
2023-07-03T05:23:52.772Z,19.60
2023-07-03T05:24:52.683Z,24.00
2023-07-03T05:25:52.932Z,19.70
2023-07-03T05:26:52.808Z,22.60
2023-07-03T05:27:52.652Z,23.50
2023-07-03T05:28:52.689Z,19.80
2023-07-03T05:29:53.020Z,19.80
2023-07-03T05:30:52.593Z,19.10
2023-07-03T05:31:52.649Z,24.20
2023-07-03T05:32:52.723Z,18.40
2023-07-03T05:33:52.604Z,18.80
2023-07-03T05:34:52.692Z,21.90
2023-07-03T05:35:54.498Z,17.60
2023-07-03T05:36:52.572Z,18.90
2023-07-03T05:37:52.566Z,20.40
2023-07-03T05:38:52.539Z,21.70
2023-07-03T05:39:52.491Z,17.10
2023-07-03T05:40:52.565Z,20.90
2023-07-03T05:41:52.479Z,18.70
2023-07-03T05:42:53.176Z,19.60
2023-07-03T05:43:52.454Z,21.90
2023-07-03T05:44:52.455Z,21.30
2023-07-03T05:45:52.717Z,18.80
2023-07-03T05:46:52.509Z,24.30
2023-07-03T05:47:52.507Z,19.70
2023-07-03T05:48:52.446Z,17.90
2023-07-03T05:49:52.422Z,16.80
2023-07-03T05:50:52.429Z,23.60
2023-07-03T05:51:52.349Z,21.90
2023-07-03T05:54:02.501Z,21.20
2023-07-03T05:55:03.499Z,19.50
2023-07-03T05:56:03.525Z,19.10
2023-07-03T05:57:03.462Z,17.80
2023-07-03T05:58:03.456Z,18.30
2023-07-03T05:59:03.458Z,15.20
2023-07-03T06:00:03.386Z,22.80
2023-07-03T06:01:03.384Z,19.90
2023-07-03T06:02:03.374Z,18.70
2023-07-03T06:03:03.940Z,22.90
2023-07-03T06:04:03.415Z,16.10
2023-07-03T06:05:03.525Z,16.60
2023-07-03T06:06:03.370Z,18.50
2023-07-03T06:07:03.389Z,18.40
2023-07-03T06:08:03.469Z,21.20
2023-07-03T06:09:03.490Z,16.90
2023-07-03T06:10:03.360Z,20.50
2023-07-03T06:11:03.731Z,23.80
2023-07-03T06:12:03.362Z,21.20
2023-07-03T06:13:03.394Z,21.30
2023-07-03T06:14:03.274Z,19.70
2023-07-03T06:15:03.391Z,24.60
2023-07-03T06:17:17.549Z,20.90
2023-07-03T06:18:14.455Z,22.20
2023-07-03T06:19:14.312Z,19.70
2023-07-03T06:20:14.378Z,17.70
2023-07-03T06:21:14.395Z,21.40
2023-07-03T06:22:14.293Z,16.90
2023-07-03T06:23:14.322Z,20.20
2023-07-03T06:24:14.310Z,19.60
2023-07-03T06:25:14.303Z,22.60
2023-07-03T06:26:14.271Z,22.50
2023-07-03T06:27:14.264Z,22.60
2023-07-03T06:28:14.267Z,18.00
2023-07-03T06:29:14.673Z,25.70
2023-07-03T06:30:14.186Z,20.80
2023-07-03T06:31:14.231Z,20.10
2023-07-03T06:32:14.267Z,19.90
2023-07-03T06:33:14.222Z,25.30
2023-07-03T06:34:14.187Z,19.20
2023-07-03T06:35:14.296Z,21.30
2023-07-03T06:36:14.207Z,19.90
2023-07-03T06:37:14.148Z,24.90
2023-07-03T06:38:14.178Z,22.70
2023-07-03T06:39:14.148Z,19.00
2023-07-03T06:40:14.076Z,15.90
2023-07-03T06:41:14.163Z,22.30
2023-07-03T06:42:14.154Z,17.90
2023-07-03T06:43:14.091Z,21.00
2023-07-03T06:44:14.075Z,19.90
2023-07-03T06:45:14.071Z,17.20
2023-07-03T06:46:14.157Z,21.80
2023-07-03T06:47:14.082Z,21.20
2023-07-03T06:48:14.061Z,17.20
2023-07-03T06:49:14.040Z,21.00
2023-07-03T06:50:14.093Z,20.10
2023-07-03T06:51:14.027Z,21.10
2023-07-03T06:52:13.971Z,21.80
2023-07-03T06:53:13.942Z,19.20
2023-07-03T06:54:13.964Z,21.00
2023-07-03T06:55:13.964Z,22.40
2023-07-03T06:56:14.035Z,17.70
2023-07-03T06:57:14.043Z,17.80
2023-07-03T06:58:28.852Z,21.10
2023-07-03T06:59:13.913Z,24.50
2023-07-03T07:00:13.917Z,23.80
2023-07-03T07:01:13.919Z,24.20
2023-07-03T07:02:14.047Z,22.10
2023-07-03T07:03:13.940Z,21.60
2023-07-03T07:04:14.014Z,16.90
2023-07-03T07:05:13.915Z,23.50
2023-07-03T07:06:13.908Z,20.20
2023-07-03T07:07:13.823Z,20.30
2023-07-03T07:08:13.841Z,20.80
2023-07-03T07:09:13.828Z,24.90
2023-07-03T07:10:13.842Z,21.50
2023-07-03T07:11:13.813Z,24.00
2023-07-03T07:12:19.969Z,25.10
2023-07-03T07:13:19.833Z,25.60
2023-07-03T07:14:20.310Z,19.90
2023-07-03T07:15:13.724Z,17.90
2023-07-03T07:16:13.752Z,25.10
2023-07-03T07:17:13.839Z,23.40
2023-07-03T07:18:13.781Z,20.00
2023-07-03T07:19:13.738Z,19.00
2023-07-03T07:20:13.734Z,19.50
2023-07-03T07:21:13.685Z,19.60
2023-07-03T07:22:13.734Z,18.50
2023-07-03T07:23:13.719Z,19.70
2023-07-03T07:24:13.699Z,17.70
2023-07-03T07:25:13.710Z,19.60
2023-07-03T07:26:13.603Z,19.40
2023-07-03T07:27:13.596Z,19.10
2023-07-03T07:28:13.689Z,18.60
2023-07-03T07:29:13.615Z,20.10
2023-07-03T07:30:13.649Z,18.30
2023-07-03T07:31:13.676Z,17.80
2023-07-03T07:32:13.593Z,17.00
2023-07-03T07:33:13.585Z,16.90
2023-07-03T07:34:13.508Z,18.30
2023-07-03T07:35:13.536Z,21.00
2023-07-03T07:36:13.570Z,16.40
2023-07-03T07:37:13.490Z,17.90
2023-07-03T07:38:13.485Z,19.70
2023-07-03T07:39:13.475Z,18.40
2023-07-03T07:40:13.583Z,19.40
2023-07-03T07:41:13.592Z,18.00
2023-07-03T07:42:13.502Z,15.20
2023-07-03T07:43:13.464Z,15.30
2023-07-03T07:44:13.385Z,19.90
2023-07-03T07:45:13.455Z,16.60
2023-07-03T07:46:13.412Z,17.40
2023-07-03T07:47:13.456Z,18.20
2023-07-03T07:48:13.467Z,15.70
2023-07-03T07:49:13.470Z,16.10
2023-07-03T07:50:13.475Z,18.80
2023-07-03T07:51:13.368Z,15.30
2023-07-03T07:52:13.385Z,17.90
2023-07-03T07:53:13.373Z,15.50
2023-07-03T07:54:13.335Z,16.60
2023-07-03T07:55:13.338Z,14.30
2023-07-03T07:56:13.260Z,16.90
2023-07-03T07:57:13.243Z,14.70
2023-07-03T07:58:13.275Z,13.60
2023-07-03T07:59:13.336Z,11.70
2023-07-03T08:00:13.261Z,13.50
2023-07-03T08:01:13.398Z,14.10
2023-07-03T08:02:13.301Z,15.10
2023-07-03T08:03:13.382Z,14.70
2023-07-03T08:04:13.358Z,16.40
2023-07-03T08:05:13.272Z,12.70
2023-07-03T08:06:13.220Z,14.90
2023-07-03T08:07:13.147Z,11.80
2023-07-03T08:08:13.134Z,13.00
2023-07-03T08:09:13.223Z,10.70
2023-07-03T08:10:13.220Z,18.30
2023-07-03T08:11:13.157Z,21.20
2023-07-03T08:12:13.138Z,19.40
2023-07-03T08:13:13.136Z,19.70
2023-07-03T08:14:13.135Z,16.90
2023-07-03T08:15:13.155Z,16.90
2023-07-03T08:16:13.168Z,15.70
2023-07-03T08:17:13.044Z,15.20
2023-07-03T08:18:13.135Z,13.40
2023-07-03T08:19:13.026Z,17.50
2023-07-03T08:20:13.032Z,15.80
2023-07-03T08:21:13.033Z,19.80
2023-07-03T08:22:13.102Z,16.40
2023-07-03T08:23:13.037Z,17.70
2023-07-03T08:24:13.011Z,15.60
2023-07-03T08:25:13.033Z,15.20
2023-07-03T08:26:12.994Z,17.20
2023-07-03T08:27:12.987Z,15.20
2023-07-03T08:28:12.997Z,13.90
2023-07-03T08:29:12.988Z,14.70
2023-07-03T08:30:12.902Z,16.40
2023-07-03T08:31:12.963Z,15.00
2023-07-03T08:32:13.006Z,12.50
2023-07-03T08:33:13.076Z,14.30
2023-07-03T08:34:12.905Z,15.10
2023-07-03T08:37:12.872Z,11.40
2023-07-03T08:38:12.889Z,14.30
2023-07-03T08:39:12.877Z,12.50
2023-07-03T08:40:12.883Z,14.90
2023-07-03T08:41:12.829Z,16.40
2023-07-03T08:42:12.790Z,14.00
2023-07-03T08:43:14.608Z,13.60
2023-07-03T08:44:12.808Z,13.50
2023-07-03T08:45:12.900Z,14.50
2023-07-03T08:46:12.824Z,13.80
2023-07-03T08:47:12.798Z,13.70
2023-07-03T08:48:12.858Z,15.10
2023-07-03T08:49:12.695Z,15.80
2023-07-03T08:50:14.835Z,17.00
2023-07-03T08:51:12.760Z,11.60
2023-07-03T08:52:12.755Z,13.60
2023-07-03T08:53:12.671Z,13.80
2023-07-03T08:54:12.758Z,14.40
2023-07-03T08:55:12.667Z,12.40
2023-07-03T08:56:12.689Z,12.10
2023-07-03T08:57:12.667Z,16.50
2023-07-03T08:58:12.645Z,13.50
2023-07-03T08:59:12.677Z,12.70
2023-07-03T09:00:12.654Z,12.80
2023-07-03T09:01:12.604Z,13.70
2023-07-03T09:02:12.582Z,12.10
2023-07-03T09:03:12.675Z,12.90
2023-07-03T09:04:12.645Z,14.20
2023-07-03T09:05:12.550Z,10.90
2023-07-03T09:06:12.573Z,12.70
2023-07-03T09:07:12.647Z,13.20
2023-07-03T09:08:12.546Z,15.90
2023-07-03T09:09:13.488Z,14.30
2023-07-03T09:10:12.534Z,13.20
2023-07-03T09:11:12.539Z,15.10
2023-07-03T09:12:12.457Z,12.90
2023-07-03T09:13:12.440Z,10.40
2023-07-03T09:14:12.588Z,13.20
2023-07-03T09:15:12.521Z,13.10
2023-07-03T09:16:12.451Z,12.40
2023-07-03T09:17:12.541Z,15.30
2023-07-03T09:18:12.820Z,13.50
2023-07-03T09:19:12.400Z,11.00
2023-07-03T09:20:12.398Z,11.20
2023-07-03T09:21:12.433Z,9.80
2023-07-03T09:22:12.446Z,13.70
2023-07-03T09:23:12.403Z,15.00
2023-07-03T09:24:12.322Z,12.70
2023-07-03T09:25:12.326Z,13.20
2023-07-03T09:26:12.335Z,12.30
2023-07-03T09:27:12.325Z,12.50
2023-07-03T09:28:12.413Z,12.70
2023-07-03T09:29:12.403Z,14.10
2023-07-03T09:30:12.855Z,12.50
2023-07-03T09:31:12.430Z,15.90
2023-07-03T09:32:12.290Z,11.80
2023-07-03T09:33:12.324Z,12.80
2023-07-03T09:34:12.284Z,11.70
2023-07-03T09:35:12.213Z,16.70
2023-07-03T09:36:12.362Z,18.00
2023-07-03T09:37:12.203Z,15.20
2023-07-03T09:38:13.006Z,13.20
2023-07-03T09:39:12.284Z,11.90
2023-07-03T09:40:12.175Z,15.00
2023-07-03T09:41:12.530Z,13.70
2023-07-03T09:42:12.757Z,17.10
2023-07-03T09:43:12.167Z,11.10
2023-07-03T09:44:13.241Z,14.40
2023-07-03T09:45:12.411Z,11.10
2023-07-03T09:46:12.089Z,15.50
2023-07-03T09:47:12.147Z,14.00
2023-07-03T09:48:12.217Z,14.20
2023-07-03T09:49:12.787Z,13.00
2023-07-03T09:50:13.833Z,12.80
2023-07-03T09:51:12.442Z,11.50
2023-07-03T09:52:12.058Z,12.90
2023-07-03T09:53:12.324Z,15.80
2023-07-03T09:54:12.016Z,13.20
2023-07-03T09:55:12.055Z,15.20
2023-07-03T09:56:11.969Z,13.40
2023-07-03T09:57:11.973Z,15.70
2023-07-03T09:58:12.115Z,12.90
2023-07-03T09:59:11.980Z,12.80
2023-07-03T10:00:12.068Z,15.80
2023-07-03T10:03:31.404Z,13.10
2023-07-03T10:03:37.621Z,14.30
2023-07-03T10:06:37.566Z,15.20
2023-07-03T10:07:37.695Z,15.30
2023-07-03T10:08:37.799Z,12.10
2023-07-03T10:11:37.482Z,16.30
2023-07-03T10:12:37.549Z,12.90
2023-07-03T10:13:39.253Z,9.80
2023-07-03T10:14:37.420Z,10.90
2023-07-03T10:15:37.428Z,13.00
2023-07-03T10:16:37.489Z,13.80
2023-07-03T10:17:37.502Z,9.60
2023-07-03T10:18:37.445Z,12.30
2023-07-03T10:19:37.382Z,12.60
2023-07-03T10:20:37.387Z,14.20
2023-07-03T10:21:37.380Z,10.40
2023-07-03T10:22:37.303Z,13.30
2023-07-03T10:23:37.323Z,11.30
2023-07-03T10:24:37.299Z,15.70
2023-07-03T10:25:37.301Z,13.20
2023-07-03T10:26:37.380Z,12.70
2023-07-03T10:27:37.260Z,11.10
2023-07-03T10:28:37.267Z,12.20
2023-07-03T10:29:38.986Z,15.10
2023-07-03T10:30:37.580Z,14.00
2023-07-03T10:31:37.395Z,13.20
2023-07-03T10:32:37.252Z,13.30
2023-07-03T10:33:37.189Z,14.80
2023-07-03T10:34:37.266Z,14.90
2023-07-03T10:35:37.194Z,11.60
2023-07-03T10:36:37.266Z,11.20
2023-07-03T10:37:37.195Z,13.80
2023-07-03T10:38:37.188Z,14.10
2023-07-03T10:39:37.155Z,10.60
2023-07-03T10:40:37.145Z,13.50
2023-07-03T10:41:40.560Z,14.20
2023-07-03T10:43:05.037Z,11.40
2023-07-03T10:43:37.106Z,16.60
2023-07-03T10:44:37.076Z,12.30
2023-07-03T10:45:38.073Z,11.00
2023-07-03T10:46:37.187Z,12.50
2023-07-03T10:47:37.144Z,15.10
2023-07-03T10:48:37.076Z,14.20
2023-07-03T10:49:37.066Z,14.30
2023-07-03T10:50:38.124Z,13.50
2023-07-03T10:51:37.075Z,16.10
2023-07-03T10:52:37.031Z,11.20
2023-07-03T10:53:36.978Z,13.70
2023-07-03T10:54:37.047Z,14.70
2023-07-03T10:55:36.966Z,13.80
2023-07-03T10:56:37.059Z,11.10
2023-07-03T10:57:37.046Z,13.70
2023-07-03T10:58:36.941Z,12.00
2023-07-03T10:59:36.952Z,14.10
2023-07-03T11:00:36.956Z,13.50
2023-07-03T11:01:36.948Z,12.30
2023-07-03T11:02:37.007Z,13.40
2023-07-03T11:03:36.861Z,13.60
2023-07-03T11:04:36.905Z,14.60
2023-07-03T11:05:36.869Z,11.50
2023-07-03T11:06:36.864Z,16.10
2023-07-03T11:07:36.859Z,13.20
2023-07-03T11:08:36.923Z,11.90
2023-07-03T11:09:36.835Z,13.40
2023-07-03T11:10:36.836Z,13.90
2023-07-03T11:11:37.100Z,12.90
2023-07-03T11:12:36.841Z,13.90
2023-07-03T11:13:36.876Z,15.30
2023-07-03T11:14:36.800Z,11.10
2023-07-03T11:15:36.800Z,12.90
2023-07-03T11:16:36.768Z,13.20
2023-07-03T11:17:36.763Z,14.50
2023-07-03T11:23:36.775Z,15.60
2023-07-03T11:24:36.677Z,12.60
2023-07-03T11:25:36.851Z,13.50
2023-07-03T11:28:36.700Z,14.00
2023-07-03T11:29:36.604Z,11.10
2023-07-03T11:30:36.680Z,12.30
2023-07-03T11:31:36.660Z,13.70
2023-07-03T11:32:36.654Z,15.00
2023-07-03T11:36:49.879Z,14.30
2023-07-03T11:40:37.170Z,12.10
2023-07-03T11:43:36.475Z,13.00
2023-07-03T11:44:36.536Z,13.60
2023-07-03T11:45:36.479Z,12.30
2023-07-03T11:46:36.488Z,12.20
2023-07-03T11:47:36.489Z,13.50
2023-07-03T11:48:36.465Z,13.50
2023-07-03T11:49:36.459Z,12.80
2023-07-03T11:50:36.466Z,11.50
2023-07-03T11:51:36.502Z,10.30
2023-07-03T11:52:39.394Z,13.90
2023-07-03T11:53:36.406Z,11.20
2023-07-03T11:54:36.622Z,12.90
2023-07-03T11:55:36.517Z,12.10
2023-07-03T11:56:36.340Z,10.20
2023-07-03T11:57:36.394Z,12.40
2023-07-03T11:58:36.272Z,10.70
2023-07-03T11:59:36.264Z,13.40
2023-07-03T12:00:36.572Z,11.20
2023-07-03T12:01:36.935Z,13.10
2023-07-03T12:02:37.725Z,11.80
2023-07-03T12:03:36.376Z,11.70
2023-07-03T12:04:36.345Z,12.40
2023-07-03T12:05:36.475Z,11.40
2023-07-03T12:06:36.218Z,10.60
2023-07-03T12:07:36.334Z,12.80
2023-07-03T12:08:36.368Z,11.60
2023-07-03T12:09:36.145Z,12.50
2023-07-03T12:10:36.243Z,11.70
2023-07-03T12:11:36.155Z,15.20
2023-07-03T12:12:36.725Z,12.10
2023-07-03T12:13:37.096Z,11.10
2023-07-03T12:14:36.130Z,13.10
2023-07-03T12:15:36.140Z,12.60
2023-07-03T12:16:36.846Z,13.20
2023-07-03T12:17:41.950Z,11.00
2023-07-03T12:18:37.923Z,11.30
2023-07-03T12:19:37.665Z,11.80
2023-07-03T12:20:36.133Z,13.00
2023-07-03T12:21:36.014Z,12.90
2023-07-03T12:22:36.169Z,13.40
2023-07-03T12:23:36.363Z,10.20
2023-07-03T12:24:36.164Z,10.30
2023-07-03T12:25:36.105Z,13.80
2023-07-03T12:26:36.104Z,11.00
2023-07-03T12:27:36.138Z,11.30
2023-07-03T12:28:35.987Z,12.20
2023-07-03T12:29:36.144Z,12.70
2023-07-03T12:30:35.984Z,11.30
2023-07-03T12:31:36.121Z,14.80
2023-07-03T12:32:36.239Z,11.10
2023-07-03T12:33:36.350Z,12.60
2023-07-03T12:34:36.132Z,14.60
2023-07-03T12:35:36.120Z,11.20
2023-07-03T12:36:40.189Z,14.40
2023-07-03T12:37:35.979Z,13.00
2023-07-03T12:38:36.143Z,11.00
2023-07-03T12:39:35.863Z,12.90
2023-07-03T12:40:36.071Z,11.50
2023-07-03T12:41:35.904Z,12.60
2023-07-03T12:42:35.890Z,12.80
2023-07-03T12:43:35.788Z,12.20
2023-07-03T12:44:35.797Z,14.20
2023-07-03T12:45:36.015Z,11.90
2023-07-03T12:46:36.029Z,11.80
2023-07-03T12:47:35.882Z,11.90
2023-07-03T12:48:36.249Z,11.40
2023-07-03T12:49:35.738Z,11.50
2023-07-03T12:50:35.754Z,15.40
2023-07-03T12:51:35.906Z,14.90
2023-07-03T12:52:35.752Z,14.30
2023-07-03T12:53:35.665Z,14.30
2023-07-03T12:54:35.757Z,15.10
2023-07-03T12:55:35.876Z,11.20
2023-07-03T12:56:35.880Z,13.70
2023-07-03T12:57:35.909Z,9.50
2023-07-03T12:58:35.880Z,12.50
2023-07-03T12:59:35.622Z,13.20
2023-07-03T13:00:36.251Z,12.50
2023-07-03T13:01:35.622Z,10.30
2023-07-03T13:02:35.668Z,12.00
2023-07-03T13:03:35.785Z,13.20
2023-07-03T13:04:35.653Z,11.80
2023-07-03T13:05:35.711Z,10.60
2023-07-03T13:06:35.628Z,12.40
2023-07-03T13:07:35.693Z,10.10
2023-07-03T13:08:35.630Z,12.90
2023-07-03T13:09:35.567Z,10.60
2023-07-03T13:10:35.542Z,13.60
2023-07-03T13:11:35.515Z,14.20
2023-07-03T13:12:35.587Z,11.40
2023-07-03T13:13:35.562Z,11.30
2023-07-03T13:14:35.513Z,10.60
2023-07-03T13:15:35.726Z,11.20
2023-07-03T13:16:35.526Z,11.90
2023-07-03T13:17:35.592Z,9.40
2023-07-03T13:18:35.418Z,7.00